createdAt,value
2024-03-06T00:01:13.713Z,16.40
2024-03-06T00:03:41.483Z,16.40
2024-03-06T00:06:09.279Z,16.40
2024-03-06T00:08:38.277Z,16.40
2024-03-06T00:11:06.993Z,16.39
2024-03-06T00:13:36.461Z,16.39
2024-03-06T00:16:05.069Z,16.40
2024-03-06T00:18:32.809Z,16.39
2024-03-06T00:21:01.030Z,16.40
2024-03-06T00:23:28.812Z,16.40
2024-03-06T00:25:56.665Z,16.39
2024-03-06T00:28:25.284Z,16.38
2024-03-06T00:30:54.412Z,16.39
2024-03-06T00:33:22.165Z,16.39
2024-03-06T00:35:50.026Z,16.39
2024-03-06T00:38:17.856Z,16.38
2024-03-06T00:40:45.750Z,16.37
2024-03-06T00:43:13.671Z,16.39
2024-03-06T00:45:41.445Z,16.39
2024-03-06T00:48:10.846Z,16.38
2024-03-06T00:50:38.713Z,16.39
2024-03-06T00:53:06.688Z,16.38
2024-03-06T00:55:34.569Z,16.38
2024-03-06T00:58:02.782Z,16.37
2024-03-06T01:00:31.516Z,16.38
2024-03-06T01:02:59.270Z,16.36
2024-03-06T01:05:28.661Z,16.37
2024-03-06T01:07:57.873Z,16.36
2024-03-06T01:10:26.451Z,16.36
2024-03-06T01:12:54.246Z,16.37
2024-03-06T01:15:22.020Z,16.35
2024-03-06T01:17:50.563Z,16.35
2024-03-06T01:20:19.473Z,16.35
2024-03-06T01:22:48.705Z,16.35
2024-03-06T01:25:16.460Z,16.35
2024-03-06T01:27:44.209Z,16.35
2024-03-06T01:30:12.484Z,16.34
2024-03-06T01:32:40.238Z,16.36
2024-03-06T01:35:09.062Z,16.35
2024-03-06T01:37:36.913Z,16.36
2024-03-06T01:40:08.232Z,16.34
2024-03-06T01:42:35.983Z,16.35
2024-03-06T01:45:04.800Z,16.34
2024-03-06T01:47:32.554Z,16.36
2024-03-06T01:50:00.518Z,16.35
2024-03-06T01:52:28.744Z,16.35
2024-03-06T01:54:57.568Z,16.35
2024-03-06T01:57:27.164Z,16.36
2024-03-06T01:59:55.540Z,16.35
2024-03-06T02:02:23.460Z,16.34
2024-03-06T02:04:51.289Z,16.34
2024-03-06T02:07:20.230Z,16.32
2024-03-06T02:09:48.081Z,16.34
2024-03-06T02:12:15.923Z,16.34
2024-03-06T02:14:45.485Z,16.35
2024-03-06T02:17:13.358Z,16.34
2024-03-06T02:19:42.215Z,16.33
2024-03-06T02:22:10.758Z,16.33
2024-03-06T02:24:39.375Z,16.33
2024-03-06T02:27:07.642Z,16.33
2024-03-06T02:29:37.563Z,16.33
2024-03-06T02:32:05.554Z,16.31
2024-03-06T02:34:33.478Z,16.32
2024-03-06T02:37:01.278Z,16.32
2024-03-06T02:39:30.488Z,16.33
2024-03-06T02:41:58.363Z,16.32
2024-03-06T02:44:26.100Z,16.33
2024-03-06T02:46:54.007Z,16.33
2024-03-06T02:49:21.787Z,16.32
2024-03-06T02:51:49.641Z,16.31
2024-03-06T02:54:17.480Z,16.33
2024-03-06T02:56:46.998Z,16.32
2024-03-06T02:59:14.979Z,16.32
2024-03-06T03:01:42.809Z,16.31
2024-03-06T03:04:13.250Z,16.31
2024-03-06T03:06:41.029Z,16.31
2024-03-06T03:09:12.606Z,16.32
2024-03-06T03:11:40.408Z,16.30
2024-03-06T03:14:09.870Z,16.30
2024-03-06T03:16:37.752Z,16.30
2024-03-06T03:19:05.935Z,16.29
2024-03-06T03:21:34.154Z,16.29
2024-03-06T03:24:01.900Z,16.29
2024-03-06T03:26:29.654Z,16.28
2024-03-06T03:28:57.868Z,16.27
2024-03-06T03:31:27.000Z,16.26
2024-03-06T03:33:54.771Z,16.26
2024-03-06T03:36:22.580Z,16.27
2024-03-06T03:38:50.317Z,16.25
2024-03-06T03:41:18.548Z,16.26
2024-03-06T03:43:47.413Z,16.26
2024-03-06T03:46:15.327Z,16.27
2024-03-06T03:48:44.648Z,16.26
2024-03-06T03:51:13.358Z,16.26
2024-03-06T03:53:42.263Z,16.26
2024-03-06T03:56:10.061Z,16.26
2024-03-06T03:58:40.745Z,16.26
2024-03-06T04:01:08.618Z,16.25
2024-03-06T04:03:36.379Z,16.24
2024-03-06T04:06:06.045Z,16.26
2024-03-06T04:08:33.789Z,16.27
2024-03-06T04:11:01.577Z,16.27
2024-03-06T04:13:29.342Z,16.26
2024-03-06T04:15:57.642Z,16.27
2024-03-06T04:18:25.382Z,16.27
2024-03-06T04:20:53.119Z,16.27
2024-03-06T04:23:22.277Z,16.27
2024-03-06T04:25:50.049Z,16.27
2024-03-06T04:28:17.809Z,16.29
2024-03-06T04:30:45.575Z,16.28
2024-03-06T04:33:15.168Z,16.29
2024-03-06T04:35:44.100Z,16.29
2024-03-06T04:38:11.962Z,16.28
2024-03-06T04:40:41.480Z,16.28
2024-03-06T04:43:09.433Z,16.29
2024-03-06T04:45:37.180Z,16.29
2024-03-06T04:48:07.746Z,16.29
2024-03-06T04:50:35.636Z,16.28
2024-03-06T04:53:03.465Z,16.28
2024-03-06T04:55:34.002Z,16.27
2024-03-06T04:58:03.200Z,16.29
2024-03-06T05:00:31.186Z,16.29
2024-03-06T05:58:17.262Z,16.23
2024-03-06T06:00:47.321Z,16.24
2024-03-06T06:03:16.411Z,16.25
2024-03-06T06:05:44.288Z,16.24
2024-03-06T06:08:12.098Z,16.25
2024-03-06T06:10:39.845Z,16.25
2024-03-06T06:13:07.657Z,16.26
2024-03-06T06:15:35.461Z,16.25
2024-03-06T06:18:03.395Z,16.24
2024-03-06T06:20:32.603Z,16.25
2024-03-06T06:23:00.402Z,16.26
2024-03-06T06:25:28.241Z,16.26
2024-03-06T06:27:56.009Z,16.26
2024-03-06T06:30:24.392Z,16.26
2024-03-06T06:32:52.293Z,16.26
2024-03-06T06:35:20.193Z,16.26
2024-03-06T06:37:49.326Z,16.25
2024-03-06T06:40:17.194Z,16.26
2024-03-06T06:42:50.919Z,16.26
2024-03-06T06:45:19.224Z,16.26
2024-03-06T06:47:48.096Z,16.26
2024-03-06T06:50:16.070Z,16.26
2024-03-06T06:52:44.488Z,16.24
2024-03-06T06:55:13.605Z,16.26
2024-03-06T06:57:41.863Z,16.25
2024-03-06T07:00:12.996Z,16.26
2024-03-06T07:02:42.085Z,16.27
2024-03-06T07:05:11.498Z,16.25
2024-03-06T07:07:39.939Z,16.24
2024-03-06T07:10:09.296Z,16.24
2024-03-06T07:12:38.996Z,16.25
2024-03-06T07:15:08.011Z,16.24
2024-03-06T07:17:36.125Z,16.23
2024-03-06T07:20:06.236Z,16.24
2024-03-06T07:22:35.181Z,16.24
2024-03-06T07:25:03.201Z,16.23
2024-03-06T07:27:30.940Z,16.24
2024-03-06T07:30:00.875Z,16.22
2024-03-06T07:32:28.618Z,16.23
2024-03-06T07:34:56.447Z,16.24
2024-03-06T07:37:24.219Z,16.23
2024-03-06T07:39:53.991Z,16.24
2024-03-06T07:42:22.308Z,16.22
2024-03-06T07:44:50.160Z,16.23
2024-03-06T07:47:19.313Z,16.23
2024-03-06T07:49:47.834Z,16.24
2024-03-06T07:52:15.964Z,16.24
2024-03-06T07:54:43.994Z,16.24
2024-03-06T07:57:11.843Z,16.24
2024-03-06T07:59:39.651Z,16.25
2024-03-06T08:02:07.746Z,16.25
2024-03-06T08:04:37.764Z,16.24
2024-03-06T08:07:06.148Z,16.25
2024-03-06T08:09:34.147Z,16.25
2024-03-06T08:12:01.993Z,16.25
2024-03-06T08:14:29.854Z,16.24
2024-03-06T08:16:58.280Z,16.25
2024-03-06T08:19:26.941Z,16.24
2024-03-06T08:21:56.100Z,16.25
2024-03-06T08:24:23.865Z,16.23
2024-03-06T08:26:51.646Z,16.23
2024-03-06T08:29:19.457Z,16.23
2024-03-06T08:31:47.305Z,16.23
2024-03-06T08:34:15.215Z,16.23
2024-03-06T08:36:43.022Z,16.24
2024-03-06T08:39:14.751Z,16.23
2024-03-06T08:41:43.296Z,16.22
2024-03-06T08:44:11.145Z,16.22
2024-03-06T08:46:38.967Z,16.22
2024-03-06T08:49:08.785Z,16.24
2024-03-06T08:51:38.137Z,16.23
2024-03-06T08:54:06.052Z,16.22
2024-03-06T08:56:35.620Z,16.22
2024-03-06T08:59:04.627Z,16.23
2024-03-06T09:01:32.618Z,16.22
2024-03-06T09:04:00.457Z,16.22
2024-03-06T09:06:28.402Z,16.23
2024-03-06T09:08:56.207Z,16.23
2024-03-06T09:11:24.350Z,16.23
2024-03-06T09:13:53.500Z,16.24
2024-03-06T09:16:21.247Z,16.23
2024-03-06T09:18:48.976Z,16.23
2024-03-06T09:21:16.717Z,16.22
2024-03-06T09:23:44.732Z,16.23
2024-03-06T09:26:18.005Z,16.23
2024-03-06T09:28:45.894Z,16.23
2024-03-06T09:31:15.231Z,16.24
2024-03-06T09:33:43.089Z,16.23
2024-03-06T09:36:14.332Z,16.23
2024-03-06T09:38:42.749Z,16.24
2024-03-06T09:41:11.049Z,16.25
2024-03-06T09:43:39.120Z,16.25
2024-03-06T09:46:06.956Z,16.23
2024-03-06T09:48:39.296Z,16.23
2024-03-06T09:51:09.091Z,16.22
2024-03-06T09:53:38.286Z,16.23
2024-03-06T09:56:07.096Z,16.23
2024-03-06T09:58:34.847Z,16.23
2024-03-06T10:01:04.817Z,16.23
2024-03-06T10:03:33.164Z,16.24
2024-03-06T10:06:05.863Z,16.23
2024-03-06T10:08:35.283Z,16.24
2024-03-06T10:11:03.322Z,16.24
2024-03-06T10:13:31.800Z,16.24
2024-03-06T10:16:00.262Z,16.24
2024-03-06T10:18:29.719Z,16.24
2024-03-06T10:20:57.962Z,16.25
2024-03-06T10:23:29.639Z,16.25
2024-03-06T10:25:57.666Z,16.26
2024-03-06T10:28:26.176Z,16.26
2024-03-06T10:31:04.459Z,16.26
2024-03-06T10:33:33.737Z,16.26
2024-03-06T10:36:05.142Z,16.26
2024-03-06T10:38:38.476Z,16.22
2024-03-06T10:41:09.053Z,16.24
2024-03-06T10:43:40.145Z,16.24
2024-03-06T10:46:12.537Z,16.24
2024-03-06T10:48:43.286Z,16.24
2024-03-06T10:51:15.452Z,16.25
2024-03-06T10:53:45.589Z,16.24
2024-03-06T10:56:14.680Z,16.25
2024-03-06T10:58:44.230Z,16.26
2024-03-06T11:01:13.768Z,16.26
2024-03-06T11:03:42.877Z,16.27
2024-03-06T11:06:10.910Z,16.27
2024-03-06T11:08:38.897Z,16.27
2024-03-06T11:11:24.060Z,16.28
2024-03-06T11:13:52.649Z,16.27
2024-03-06T11:16:20.455Z,16.28
2024-03-06T11:18:48.628Z,16.28
2024-03-06T11:21:32.855Z,16.27
2024-03-06T11:24:17.563Z,16.28
2024-03-06T11:26:48.991Z,16.27
2024-03-06T11:29:21.030Z,16.29
2024-03-06T11:32:09.208Z,16.28
2024-03-06T11:34:39.218Z,16.27
2024-03-06T11:37:10.479Z,16.27
2024-03-06T11:39:40.573Z,16.28
2024-03-06T11:42:10.438Z,16.28
2024-03-06T11:44:39.216Z,16.28
2024-03-06T11:47:09.918Z,16.27
2024-03-06T11:49:38.958Z,16.27
2024-03-06T11:52:09.192Z,16.27
2024-03-06T11:54:37.341Z,16.28
2024-03-06T11:57:06.745Z,16.28
2024-03-06T11:59:39.176Z,16.28
2024-03-06T12:02:08.637Z,16.29
2024-03-06T12:04:39.029Z,16.27
2024-03-06T12:07:08.078Z,16.28
2024-03-06T12:09:41.129Z,16.28
2024-03-06T12:12:11.585Z,16.29
2024-03-06T12:14:42.054Z,16.29
2024-03-06T12:17:15.749Z,16.28
2024-03-06T12:19:45.065Z,16.28
2024-03-06T12:22:13.774Z,16.29
2024-03-06T12:24:41.552Z,16.29
2024-03-06T12:27:10.107Z,16.28
2024-03-06T12:29:38.657Z,16.30
2024-03-06T12:32:18.614Z,16.32
2024-03-06T12:34:46.591Z,16.33
2024-03-06T12:37:14.370Z,16.31
2024-03-06T12:39:43.751Z,16.31
2024-03-06T12:42:13.060Z,16.31
2024-03-06T12:44:42.012Z,16.30
2024-03-06T12:47:11.382Z,16.31
2024-03-06T12:49:39.188Z,16.31
2024-03-06T12:52:07.178Z,16.31
2024-03-06T12:54:34.939Z,16.32
2024-03-06T12:57:02.813Z,16.32
2024-03-06T12:59:30.604Z,16.32
2024-03-06T13:01:58.490Z,16.33
2024-03-06T13:04:27.680Z,16.33
2024-03-06T13:06:55.483Z,16.34
2024-03-06T13:09:24.293Z,16.34
2024-03-06T13:11:52.144Z,16.34
2024-03-06T13:14:20.280Z,16.35
2024-03-06T13:16:48.038Z,16.36
2024-03-06T13:19:15.801Z,16.35
2024-03-06T13:21:44.928Z,16.38
2024-03-06T13:24:12.654Z,16.37
2024-03-06T13:26:41.658Z,16.37
2024-03-06T13:29:09.533Z,16.37
2024-03-06T13:31:37.610Z,16.38
2024-03-06T13:34:05.533Z,16.39
2024-03-06T13:36:33.604Z,16.38
2024-03-06T13:39:02.936Z,16.39
2024-03-06T13:41:31.029Z,16.40
2024-03-06T13:43:58.884Z,16.40
2024-03-06T13:46:26.682Z,16.43
2024-03-06T13:48:54.850Z,16.43
2024-03-06T13:51:22.637Z,16.45
2024-03-06T13:53:50.484Z,16.46
2024-03-06T13:56:19.955Z,16.46
2024-03-06T13:58:47.776Z,16.47
2024-03-06T14:01:15.666Z,16.49
2024-03-06T14:03:43.485Z,16.49
2024-03-06T14:06:11.538Z,16.51
2024-03-06T14:08:42.467Z,16.55
2024-03-06T14:11:10.508Z,16.58
2024-03-06T14:13:39.701Z,16.56
2024-03-06T14:16:07.610Z,16.54
2024-03-06T14:18:35.536Z,16.50
2024-03-06T14:21:03.398Z,16.51
2024-03-06T14:23:33.398Z,16.49
2024-03-06T14:26:03.404Z,16.49
2024-03-06T14:28:31.288Z,16.48
2024-03-06T14:31:01.270Z,16.48
2024-03-06T14:33:29.272Z,16.47
2024-03-06T14:35:57.653Z,16.47
2024-03-06T14:38:25.629Z,16.46
2024-03-06T14:40:53.464Z,16.49
2024-03-06T14:43:21.278Z,16.55
2024-03-06T14:45:49.575Z,16.54
2024-03-06T14:48:19.094Z,16.54
2024-03-06T14:50:46.940Z,16.52
2024-03-06T14:53:14.852Z,16.53
2024-03-06T14:55:42.687Z,16.51
2024-03-06T14:58:10.468Z,16.51
2024-03-06T15:00:38.228Z,16.51
2024-03-06T15:03:06.144Z,16.52
2024-03-06T15:05:35.394Z,16.53
2024-03-06T15:08:05.085Z,16.55
2024-03-06T15:10:33.004Z,16.55
2024-03-06T15:13:00.823Z,16.58
2024-03-06T15:15:28.748Z,16.60
2024-03-06T15:17:56.686Z,16.61
2024-03-06T15:20:24.708Z,16.63
2024-03-06T15:22:54.091Z,16.64
2024-03-06T15:25:22.027Z,16.66
2024-03-06T15:27:49.784Z,16.68
2024-03-06T15:30:18.158Z,16.69
2024-03-06T15:32:46.899Z,16.69
2024-03-06T15:35:14.842Z,16.70
2024-03-06T15:37:43.777Z,16.71
2024-03-06T15:40:14.019Z,16.71
2024-03-06T15:42:41.908Z,16.72
2024-03-06T15:45:10.322Z,16.73
2024-03-06T15:47:39.438Z,16.73
2024-03-06T15:50:10.683Z,16.73
2024-03-06T15:52:38.801Z,16.74
2024-03-06T15:55:07.545Z,16.74
2024-03-06T15:57:36.937Z,16.75
2024-03-06T16:00:07.143Z,16.75
2024-03-06T16:02:36.860Z,16.75
2024-03-06T16:05:05.066Z,16.75
2024-03-06T16:07:34.655Z,16.76
2024-03-06T16:10:03.695Z,16.76
2024-03-06T16:12:31.543Z,16.77
2024-03-06T16:15:00.707Z,16.77
2024-03-06T16:17:28.693Z,16.78
2024-03-06T16:19:56.568Z,16.76
2024-03-06T16:22:24.445Z,16.75
2024-03-06T16:24:52.996Z,16.72
2024-03-06T16:27:19.894Z,16.71
2024-03-06T16:29:49.758Z,16.70
2024-03-06T16:32:19.021Z,16.69
2024-03-06T16:34:46.803Z,16.68
2024-03-06T16:37:14.785Z,16.67
2024-03-06T16:39:42.646Z,16.67
2024-03-06T16:42:10.423Z,16.66
2024-03-06T16:44:38.436Z,16.65
2024-03-06T16:47:07.417Z,16.65
2024-03-06T16:49:36.607Z,16.64
2024-03-06T16:52:04.963Z,16.64
2024-03-06T16:54:33.962Z,16.63
2024-03-06T16:57:02.041Z,16.62
2024-03-06T16:59:30.890Z,16.62
2024-03-06T17:01:58.946Z,16.62
2024-03-06T17:04:26.686Z,16.61
2024-03-06T17:06:55.792Z,16.61
2024-03-06T17:09:23.620Z,16.60
2024-03-06T17:11:51.481Z,16.61
2024-03-06T17:14:19.451Z,16.60
2024-03-06T17:16:47.591Z,16.59
2024-03-06T17:19:15.511Z,16.60
2024-03-06T17:21:43.278Z,16.59
2024-03-06T17:24:14.766Z,16.59
2024-03-06T17:26:42.640Z,16.59
2024-03-06T17:29:10.608Z,16.60
2024-03-06T17:31:38.650Z,16.59
2024-03-06T17:34:07.133Z,16.59
2024-03-06T17:36:37.505Z,16.59
2024-03-06T17:39:07.306Z,16.59
2024-03-06T17:41:36.665Z,16.59
2024-03-06T17:44:05.279Z,16.58
2024-03-06T17:46:33.462Z,16.58
2024-03-06T17:49:01.233Z,16.58
2024-03-06T17:51:32.293Z,16.58
2024-03-06T17:54:00.156Z,16.58
2024-03-06T17:56:28.033Z,16.57
2024-03-06T17:58:57.220Z,16.57
2024-03-06T18:01:25.699Z,16.57
2024-03-06T18:03:55.624Z,16.57
2024-03-06T18:06:23.708Z,16.57
2024-03-06T18:08:51.591Z,16.58
2024-03-06T18:11:19.552Z,16.58
2024-03-06T18:13:47.394Z,16.58
2024-03-06T18:16:16.676Z,16.58
2024-03-06T18:18:44.580Z,16.59
2024-03-06T18:21:12.417Z,16.58
2024-03-06T18:23:41.191Z,16.59
2024-03-06T18:26:09.369Z,16.59
2024-03-06T18:28:37.160Z,16.58
2024-03-06T18:31:05.494Z,16.59
2024-03-06T18:33:34.796Z,16.59
2024-03-06T18:36:03.967Z,16.59
2024-03-06T18:38:34.552Z,16.59
2024-03-06T18:41:02.382Z,16.58
2024-03-06T18:43:30.170Z,16.58
2024-03-06T18:45:57.960Z,16.57
2024-03-06T18:48:25.753Z,16.57
2024-03-06T18:50:55.024Z,16.58
2024-03-06T18:53:22.973Z,16.57
2024-03-06T18:55:50.816Z,16.56
2024-03-06T18:58:18.654Z,16.55
2024-03-06T19:00:46.467Z,16.56
2024-03-06T19:03:14.284Z,16.55
2024-03-06T19:05:42.137Z,16.55
2024-03-06T19:08:11.374Z,16.57
2024-03-06T19:10:39.185Z,16.55
2024-03-06T19:13:07.624Z,16.56
2024-03-06T19:15:35.406Z,16.56
2024-03-06T19:18:03.426Z,16.55
2024-03-06T19:20:31.344Z,16.55
2024-03-06T19:22:59.106Z,16.55
2024-03-06T19:25:28.254Z,16.55
2024-03-06T19:27:56.100Z,16.56
2024-03-06T19:30:26.322Z,16.56
2024-03-06T19:32:55.741Z,16.55
2024-03-06T19:35:25.042Z,16.55
2024-03-06T19:37:53.378Z,16.56
2024-03-06T19:40:21.333Z,16.55
2024-03-06T19:42:50.510Z,16.55
2024-03-06T19:45:19.174Z,16.56
2024-03-06T19:47:47.016Z,16.55
2024-03-06T19:50:14.930Z,16.55
2024-03-06T19:52:44.669Z,16.55
2024-03-06T19:55:12.692Z,16.55
2024-03-06T19:57:40.441Z,16.54
2024-03-06T20:00:12.548Z,16.54
2024-03-06T20:02:40.842Z,16.53
2024-03-06T20:05:11.368Z,16.54
2024-03-06T20:07:40.623Z,16.53
2024-03-06T20:10:09.497Z,16.54
2024-03-06T20:12:37.354Z,16.51
2024-03-06T20:15:08.254Z,16.51
2024-03-06T20:17:37.416Z,16.50
2024-03-06T20:20:06.023Z,16.50
2024-03-06T20:22:34.823Z,16.49
2024-03-06T20:25:02.670Z,16.50
2024-03-06T20:27:30.488Z,16.50
2024-03-06T20:29:58.348Z,16.48
2024-03-06T20:32:26.507Z,16.48
2024-03-06T20:34:55.802Z,16.48
2024-03-06T20:37:23.683Z,16.47
2024-03-06T20:39:51.494Z,16.47
2024-03-06T20:42:19.330Z,16.48
2024-03-06T20:44:47.117Z,16.48
2024-03-06T20:47:15.024Z,16.48
2024-03-06T20:49:42.835Z,16.49
2024-03-06T20:52:12.000Z,16.49
2024-03-06T20:54:39.815Z,16.49
2024-03-06T20:57:07.626Z,16.48
2024-03-06T20:59:35.458Z,16.49
2024-03-06T21:02:02.272Z,16.49
2024-03-06T21:04:30.131Z,16.49
2024-03-06T21:06:58.582Z,16.49
2024-03-06T21:09:27.804Z,16.49
2024-03-06T21:11:55.649Z,16.49
2024-03-06T21:14:23.491Z,16.49
2024-03-06T21:16:54.191Z,16.49
2024-03-06T21:19:22.248Z,16.49
2024-03-06T21:21:50.082Z,16.49
2024-03-06T21:24:17.838Z,16.50
2024-03-06T21:26:50.240Z,16.49
2024-03-06T21:29:18.962Z,16.49
2024-03-06T21:31:46.862Z,16.49
2024-03-06T21:34:15.230Z,16.48
2024-03-06T21:36:43.034Z,16.49
2024-03-06T21:39:10.946Z,16.47
2024-03-06T21:41:39.423Z,16.48
2024-03-06T21:44:08.929Z,16.48
2024-03-06T21:46:36.871Z,16.47
2024-03-06T21:49:04.658Z,16.47
2024-03-06T21:51:32.420Z,16.48
2024-03-06T21:54:00.611Z,16.46
2024-03-06T21:56:28.703Z,16.47
2024-03-06T21:58:57.076Z,16.47
2024-03-06T22:01:26.381Z,16.47
2024-03-06T22:03:55.248Z,16.47
2024-03-06T22:06:23.067Z,16.48
2024-03-06T22:08:50.952Z,16.46
2024-03-06T22:11:18.937Z,16.46
2024-03-06T22:13:46.766Z,16.47
2024-03-06T22:16:14.564Z,16.46
2024-03-06T22:18:44.230Z,16.46
2024-03-06T22:21:12.029Z,16.47
2024-03-06T22:23:39.894Z,16.45
2024-03-06T22:26:09.494Z,16.47
2024-03-06T22:28:37.360Z,16.46
2024-03-06T22:31:05.402Z,16.45
2024-03-06T22:33:33.170Z,16.47
2024-03-06T22:36:02.646Z,16.46
2024-03-06T22:38:30.575Z,16.47
2024-03-06T22:40:58.776Z,16.47
2024-03-06T22:43:26.736Z,16.47
2024-03-06T22:45:54.509Z,16.46
2024-03-06T22:48:22.431Z,16.45
2024-03-06T22:50:50.259Z,16.46
2024-03-06T22:53:19.644Z,16.46
2024-03-06T22:55:47.417Z,16.45
2024-03-06T22:58:15.224Z,16.46
2024-03-06T23:00:43.009Z,16.45
2024-03-06T23:03:11.193Z,16.45
2024-03-06T23:05:39.632Z,16.45
2024-03-06T23:08:08.564Z,16.44
2024-03-06T23:10:37.780Z,16.44
2024-03-06T23:13:06.341Z,16.44
2024-03-06T23:15:34.136Z,16.45
2024-03-06T23:18:02.567Z,16.45
2024-03-06T23:20:30.692Z,16.44
2024-03-06T23:22:58.626Z,16.43
2024-03-06T23:25:26.649Z,16.43
2024-03-06T23:27:55.856Z,16.44
2024-03-06T23:30:23.667Z,16.43
2024-03-06T23:32:51.586Z,16.43
2024-03-06T23:35:19.720Z,16.44
2024-03-06T23:37:47.833Z,16.44
2024-03-06T23:40:16.255Z,16.43
2024-03-06T23:42:45.484Z,16.43
2024-03-06T23:45:16.336Z,16.43
2024-03-06T23:47:48.223Z,16.43
2024-03-06T23:50:19.123Z,16.43
2024-03-06T23:52:47.468Z,16.43
2024-03-06T23:55:16.572Z,16.44
2024-03-06T23:57:44.517Z,16.43
